createdAt,value
2019-03-04T00:04:14.061Z,12.8
2019-03-04T00:14:13.271Z,13.2
2019-03-04T00:24:12.480Z,13.1
2019-03-04T00:37:14.742Z,13.2
2019-03-04T00:47:13.949Z,13.1
2019-03-04T00:57:13.158Z,12.9
2019-03-04T01:07:12.367Z,12.5
2019-03-04T01:17:11.575Z,13.1
2019-03-04T01:27:10.785Z,13
2019-03-04T01:37:09.997Z,12.9
2019-03-04T01:47:09.285Z,12.6
2019-03-04T01:57:08.575Z,12.5
2019-03-04T02:07:07.868Z,12.8
2019-03-04T02:17:07.159Z,12.8
2019-03-04T02:27:06.449Z,13.2
2019-03-04T02:37:05.703Z,12.7
2019-03-04T02:47:04.910Z,12.6
2019-03-04T02:57:04.130Z,12.8
2019-03-04T03:07:03.334Z,13.1
2019-03-04T03:15:06.861Z,13
2019-03-04T03:25:06.069Z,12.5
2019-03-04T03:35:07.985Z,13
2019-03-04T03:45:04.491Z,12.4
2019-03-04T03:55:03.699Z,13
2019-03-04T04:05:02.909Z,12.7
2019-03-04T04:15:02.193Z,13.1
2019-03-04T04:25:01.404Z,12.4
2019-03-04T04:35:00.694Z,13
2019-03-04T04:45:00.035Z,12.6
2019-03-04T04:54:59.278Z,12.7
2019-03-04T05:04:58.568Z,12.9
2019-03-04T05:14:57.869Z,12.5
2019-03-04T05:24:57.026Z,12.7
2019-03-04T05:34:56.232Z,13.2
2019-03-04T05:44:55.440Z,13.8
2019-03-04T05:54:54.653Z,14.2
2019-03-04T06:04:53.861Z,14.2
2019-03-04T06:14:53.062Z,14.6
2019-03-04T06:24:52.269Z,14.2
2019-03-04T06:34:51.476Z,14.7
2019-03-04T06:44:50.694Z,13.9
2019-03-04T06:54:49.893Z,13.9
2019-03-04T07:04:49.104Z,14.4
2019-03-04T07:14:48.310Z,13.8
2019-03-04T07:24:47.519Z,14.4
2019-03-04T07:34:46.729Z,13.9
2019-03-04T07:44:45.939Z,14
2019-03-04T07:54:45.154Z,14.6
2019-03-04T08:04:44.359Z,14.6
2019-03-04T08:14:43.567Z,14
2019-03-04T08:24:42.828Z,14.4
2019-03-04T08:34:41.988Z,13.8
2019-03-04T08:38:54.757Z,14
2019-03-04T08:48:53.967Z,14
2019-03-04T08:58:53.183Z,14.1
2019-03-04T09:08:52.389Z,13.8
2019-03-04T09:18:51.600Z,14.6
2019-03-04T09:28:50.815Z,13.9
2019-03-04T09:38:50.026Z,13.8
2019-03-04T09:48:49.315Z,14.8
2019-03-04T09:58:48.609Z,13.9
2019-03-04T10:08:47.898Z,14.4
2019-03-04T10:18:48.601Z,14.4
2019-03-04T10:28:47.814Z,14.3
2019-03-04T10:38:47.021Z,14.7
2019-03-04T10:48:46.225Z,13.8
2019-03-04T10:58:45.433Z,14.6
2019-03-04T11:08:44.643Z,14.2
2019-03-04T11:18:43.855Z,14.7
2019-03-04T11:28:43.063Z,14.3
2019-03-04T11:38:42.278Z,14.7
2019-03-04T11:48:41.483Z,14.3
2019-03-04T11:58:40.700Z,14.3
2019-03-04T12:08:39.904Z,14.1
2019-03-04T12:18:39.115Z,13.2
2019-03-04T12:28:38.324Z,12.9
2019-03-04T12:38:37.543Z,13.3
2019-03-04T12:48:36.749Z,13.2
2019-03-04T12:58:35.954Z,12.7
2019-03-04T13:08:35.163Z,12.8
2019-03-04T13:18:34.373Z,13.4
2019-03-04T13:28:33.584Z,13.4
2019-03-04T13:38:32.802Z,12.7
2019-03-04T13:48:32.005Z,13.1
2019-03-04T13:58:31.216Z,12.8
2019-03-04T14:08:30.436Z,13
2019-03-04T14:18:29.637Z,13
2019-03-04T14:28:28.848Z,12.6
2019-03-04T14:38:28.058Z,12.5
2019-03-04T14:48:27.274Z,13.1
2019-03-04T14:58:26.482Z,13.2
2019-03-04T15:08:25.693Z,12.9
2019-03-04T15:18:24.904Z,12.9
2019-03-04T15:28:24.122Z,13.1
2019-03-04T15:38:23.325Z,13.1
2019-03-04T15:48:22.637Z,12.8
2019-03-04T15:58:21.749Z,12.9
2019-03-04T16:08:20.966Z,12.6
2019-03-04T16:18:20.179Z,12.4
2019-03-04T16:28:19.396Z,12.8
2019-03-04T16:38:18.620Z,12.7
2019-03-04T16:48:17.833Z,12.9
2019-03-04T16:58:17.053Z,12.4
2019-03-04T17:08:16.267Z,13.1
2019-03-04T17:18:17.412Z,13.1
2019-03-04T17:28:14.695Z,13.3
2019-03-04T17:38:13.910Z,12.6
2019-03-04T17:48:13.121Z,12.6
2019-03-04T17:58:12.334Z,13.2
2019-03-04T18:08:11.575Z,12.6
2019-03-04T18:18:10.761Z,12.6
2019-03-04T18:28:09.973Z,12.8
2019-03-04T18:38:09.186Z,13.1
2019-03-04T18:48:08.401Z,13.1
2019-03-04T18:58:07.611Z,12.5
2019-03-04T19:08:06.824Z,12.9
2019-03-04T19:18:06.042Z,12.4
2019-03-04T19:28:05.254Z,12.8
2019-03-04T19:38:04.464Z,13.1
2019-03-04T19:48:03.677Z,13
2019-03-04T19:58:02.888Z,12.5
2019-03-04T20:08:02.101Z,13
2019-03-04T20:18:01.316Z,12.7
2019-03-04T20:28:00.527Z,12.7
2019-03-04T20:37:59.739Z,13
2019-03-04T20:47:58.953Z,13
2019-03-04T20:57:58.170Z,12.9
2019-03-04T21:09:06.102Z,13
2019-03-04T21:19:05.316Z,13.2
2019-03-04T21:29:04.529Z,12.8
2019-03-04T21:39:03.744Z,12.6
2019-03-04T21:49:02.953Z,12.8
2019-03-04T21:59:02.164Z,13
2019-03-04T22:09:01.382Z,12.4
2019-03-04T22:19:00.668Z,12.3
2019-03-04T22:28:59.957Z,12.8
2019-03-04T22:38:59.260Z,13.1
2019-03-04T22:48:58.554Z,13.2
2019-03-04T22:58:57.842Z,12.4
2019-03-04T23:08:57.077Z,13.1
2019-03-04T23:18:56.291Z,12.5
2019-03-04T23:28:55.500Z,13.1
2019-03-04T23:38:54.708Z,12.6
2019-03-04T23:48:54.064Z,13.1
2019-03-04T23:54:00.842Z,12.6
